sensor_id;sensor_type;location;lat;lon;timestamp;pressure;altitude;pressure_sealevel;temperature;humidity
38880;BME280;25887;30.194;-97.880;2023-02-03T00:00:10;99588.81;;;6.21;62.71
38880;BME280;25887;30.194;-97.880;2023-02-03T00:02:36;99593.09;;;6.22;62.62
38880;BME280;25887;30.194;-97.880;2023-02-03T00:05:02;99577.78;;;6.22;62.47
38880;BME280;25887;30.194;-97.880;2023-02-03T00:07:28;99586.31;;;6.22;62.72
38880;BME280;25887;30.194;-97.880;2023-02-03T00:09:54;99599.97;;;6.23;62.60
38880;BME280;25887;30.194;-97.880;2023-02-03T00:12:21;99591.50;;;6.24;62.25
38880;BME280;25887;30.194;-97.880;2023-02-03T00:14:47;99596.59;;;6.24;62.27
38880;BME280;25887;30.194;-97.880;2023-02-03T00:17:12;99601.63;;;6.22;62.38
38880;BME280;25887;30.194;-97.880;2023-02-03T00:19:57;99600.75;;;6.22;62.34
38880;BME280;25887;30.194;-97.880;2023-02-03T00:22:23;99611.84;;;6.22;62.34
38880;BME280;25887;30.194;-97.880;2023-02-03T00:24:49;99602.41;;;6.20;62.38
38880;BME280;25887;30.194;-97.880;2023-02-03T00:27:15;99590.44;;;6.19;62.59
38880;BME280;25887;30.194;-97.880;2023-02-03T00:29:41;99598.94;;;6.18;62.59
38880;BME280;25887;30.194;-97.880;2023-02-03T00:32:07;99607.34;;;6.15;62.46
38880;BME280;25887;30.194;-97.880;2023-02-03T00:34:35;99609.81;;;6.13;62.75
38880;BME280;25887;30.194;-97.880;2023-02-03T00:37:01;99611.53;;;6.14;62.93
38880;BME280;25887;30.194;-97.880;2023-02-03T00:39:28;99605.56;;;6.14;62.86
38880;BME280;25887;30.194;-97.880;2023-02-03T00:41:54;99610.63;;;6.12;62.70
38880;BME280;25887;30.194;-97.880;2023-02-03T00:44:20;99610.56;;;6.11;62.71
38880;BME280;25887;30.194;-97.880;2023-02-03T00:46:46;99635.22;;;6.10;62.53
38880;BME280;25887;30.194;-97.880;2023-02-03T00:49:31;99630.06;;;6.09;62.56
38880;BME280;25887;30.194;-97.880;2023-02-03T00:51:57;99637.66;;;6.07;62.70
38880;BME280;25887;30.194;-97.880;2023-02-03T00:57:10;99647.75;;;6.04;62.78
38880;BME280;25887;30.194;-97.880;2023-02-03T00:59:54;99651.91;;;6.02;62.86
38880;BME280;25887;30.194;-97.880;2023-02-03T01:02:22;99643.41;;;6.02;62.72
38880;BME280;25887;30.194;-97.880;2023-02-03T01:04:48;99659.56;;;6.02;62.54
38880;BME280;25887;30.194;-97.880;2023-02-03T01:07:13;99663.81;;;6.02;62.59
38880;BME280;25887;30.194;-97.880;2023-02-03T01:09:39;99660.34;;;6.00;62.87
38880;BME280;25887;30.194;-97.880;2023-02-03T01:12:05;99664.56;;;5.99;62.47
38880;BME280;25887;30.194;-97.880;2023-02-03T01:14:31;99666.16;;;5.97;62.57
38880;BME280;25887;30.194;-97.880;2023-02-03T01:16:57;99672.03;;;5.95;62.90
38880;BME280;25887;30.194;-97.880;2023-02-03T01:19:23;99677.03;;;5.92;62.54
38880;BME280;25887;30.194;-97.880;2023-02-03T01:22:07;99680.44;;;5.92;62.82
38880;BME280;25887;30.194;-97.880;2023-02-03T01:24:41;99694.88;;;5.92;62.55
38880;BME280;25887;30.194;-97.880;2023-02-03T01:27:07;99688.09;;;5.92;62.74
38880;BME280;25887;30.194;-97.880;2023-02-03T01:29:32;99685.53;;;5.92;62.64
38880;BME280;25887;30.194;-97.880;2023-02-03T01:32:16;99705.13;;;5.93;62.65
38880;BME280;25887;30.194;-97.880;2023-02-03T01:34:42;99699.22;;;5.94;62.49
38880;BME280;25887;30.194;-97.880;2023-02-03T01:37:10;99710.34;;;5.96;62.78
38880;BME280;25887;30.194;-97.880;2023-02-03T01:39:38;99706.97;;;5.97;62.79
38880;BME280;25887;30.194;-97.880;2023-02-03T01:42:25;99710.47;;;5.99;62.82
38880;BME280;25887;30.194;-97.880;2023-02-03T01:44:53;99702.03;;;6.00;62.91
38880;BME280;25887;30.194;-97.880;2023-02-03T01:53:25;99714.06;;;6.04;62.60
38880;BME280;25887;30.194;-97.880;2023-02-03T01:55:52;99708.16;;;6.05;62.33
38880;BME280;25887;30.194;-97.880;2023-02-03T01:58:22;99720.19;;;6.08;62.62
38880;BME280;25887;30.194;-97.880;2023-02-03T02:00:50;99721.03;;;6.08;62.65
38880;BME280;25887;30.194;-97.880;2023-02-03T02:03:30;99738.13;;;6.11;62.71
38880;BME280;25887;30.194;-97.880;2023-02-03T02:06:01;99726.25;;;6.11;62.44
38880;BME280;25887;30.194;-97.880;2023-02-03T02:08:49;99729.72;;;6.13;62.51
38880;BME280;25887;30.194;-97.880;2023-02-03T02:11:15;99731.47;;;6.14;62.69
38880;BME280;25887;30.194;-97.880;2023-02-03T02:13:43;99735.78;;;6.16;62.42
38880;BME280;25887;30.194;-97.880;2023-02-03T02:21:50;99741.88;;;6.19;62.73
38880;BME280;25887;30.194;-97.880;2023-02-03T02:34:45;99748.91;;;6.25;62.85
38880;BME280;25887;30.194;-97.880;2023-02-03T02:37:44;99759.91;;;6.24;62.65
38880;BME280;25887;30.194;-97.880;2023-02-03T02:45:47;99779.53;;;6.25;62.65
38880;BME280;25887;30.194;-97.880;2023-02-03T02:50:52;99790.59;;;6.25;62.82
38880;BME280;25887;30.194;-97.880;2023-02-03T02:53:20;99794.81;;;6.25;62.76
38880;BME280;25887;30.194;-97.880;2023-02-03T02:55:47;99791.41;;;6.24;62.87
38880;BME280;25887;30.194;-97.880;2023-02-03T02:58:13;99797.38;;;6.25;62.84
38880;BME280;25887;30.194;-97.880;2023-02-03T03:00:40;99796.63;;;6.27;63.08
38880;BME280;25887;30.194;-97.880;2023-02-03T03:03:18;99803.41;;;6.27;62.76
38880;BME280;25887;30.194;-97.880;2023-02-03T03:05:47;99806.88;;;6.29;62.67
38880;BME280;25887;30.194;-97.880;2023-02-03T03:08:14;99813.72;;;6.30;62.74
38880;BME280;25887;30.194;-97.880;2023-02-03T03:10:41;99820.50;;;6.29;62.89
38880;BME280;25887;30.194;-97.880;2023-02-03T03:13:08;99818.81;;;6.30;62.62
38880;BME280;25887;30.194;-97.880;2023-02-03T03:15:36;99819.72;;;6.30;62.81
38880;BME280;25887;30.194;-97.880;2023-02-03T03:18:12;99809.53;;;6.30;63.27
38880;BME280;25887;30.194;-97.880;2023-02-03T03:20:54;99814.63;;;6.30;62.77
38880;BME280;25887;30.194;-97.880;2023-02-03T03:23:23;99809.53;;;6.30;63.04
38880;BME280;25887;30.194;-97.880;2023-02-03T03:29:02;99813.72;;;6.30;63.04
38880;BME280;25887;30.194;-97.880;2023-02-03T03:31:31;99812.06;;;6.30;63.08
38880;BME280;25887;30.194;-97.880;2023-02-03T03:33:56;99813.81;;;6.31;63.24
38880;BME280;25887;30.194;-97.880;2023-02-03T03:36:30;99813.88;;;6.33;63.03
38880;BME280;25887;30.194;-97.880;2023-02-03T03:41:55;99812.94;;;6.31;63.14
38880;BME280;25887;30.194;-97.880;2023-02-03T03:44:21;99819.78;;;6.32;63.03
38880;BME280;25887;30.194;-97.880;2023-02-03T03:46:51;99839.38;;;6.33;63.04
38880;BME280;25887;30.194;-97.880;2023-02-03T03:49:18;99842.81;;;6.33;62.92
38880;BME280;25887;30.194;-97.880;2023-02-03T03:54:19;99857.38;;;6.36;63.03
38880;BME280;25887;30.194;-97.880;2023-02-03T03:59:12;99861.66;;;6.37;63.32
38880;BME280;25887;30.194;-97.880;2023-02-03T04:01:41;99862.53;;;6.37;62.86
38880;BME280;25887;30.194;-97.880;2023-02-03T04:04:08;99871.16;;;6.39;62.84
38880;BME280;25887;30.194;-97.880;2023-02-03T04:06:36;99867.78;;;6.40;62.88
38880;BME280;25887;30.194;-97.880;2023-02-03T04:09:02;99876.25;;;6.39;62.78
38880;BME280;25887;30.194;-97.880;2023-02-03T04:11:29;99882.16;;;6.38;62.84
38880;BME280;25887;30.194;-97.880;2023-02-03T04:14:14;99889.81;;;6.38;62.71
38880;BME280;25887;30.194;-97.880;2023-02-03T04:16:40;99901.63;;;6.36;62.68
38880;BME280;25887;30.194;-97.880;2023-02-03T04:19:06;99905.91;;;6.37;62.76
38880;BME280;25887;30.194;-97.880;2023-02-03T04:21:33;99900.81;;;6.37;62.83
38880;BME280;25887;30.194;-97.880;2023-02-03T04:23:59;99899.94;;;6.37;62.54
38880;BME280;25887;30.194;-97.880;2023-02-03T04:26:25;99901.56;;;6.35;62.69
38880;BME280;25887;30.194;-97.880;2023-02-03T04:28:51;99898.97;;;6.33;62.53
38880;BME280;25887;30.194;-97.880;2023-02-03T04:31:17;99896.41;;;6.33;62.57
38880;BME280;25887;30.194;-97.880;2023-02-03T04:33:43;99893.00;;;6.33;62.65
38880;BME280;25887;30.194;-97.880;2023-02-03T04:36:08;99902.28;;;6.31;62.40
38880;BME280;25887;30.194;-97.880;2023-02-03T04:38:34;99905.59;;;6.30;62.62
38880;BME280;25887;30.194;-97.880;2023-02-03T04:41:00;99909.84;;;6.29;62.00
38880;BME280;25887;30.194;-97.880;2023-02-03T04:43:26;99919.19;;;6.29;62.63
38880;BME280;25887;30.194;-97.880;2023-02-03T04:45:52;99928.50;;;6.28;62.51
38880;BME280;25887;30.194;-97.880;2023-02-03T04:48:19;99931.94;;;6.29;62.62
38880;BME280;25887;30.194;-97.880;2023-02-03T04:50:45;99929.38;;;6.29;62.67
38880;BME280;25887;30.194;-97.880;2023-02-03T04:53:11;99939.59;;;6.29;62.45
38880;BME280;25887;30.194;-97.880;2023-02-03T04:55:36;99937.84;;;6.28;62.57
38880;BME280;25887;30.194;-97.880;2023-02-03T04:58:02;99945.50;;;6.28;62.54
38880;BME280;25887;30.194;-97.880;2023-02-03T05:00:36;99953.91;;;6.25;62.66
38880;BME280;25887;30.194;-97.880;2023-02-03T05:03:22;99963.31;;;6.26;62.48
38880;BME280;25887;30.194;-97.880;2023-02-03T05:05:49;99958.22;;;6.26;62.49
38880;BME280;25887;30.194;-97.880;2023-02-03T05:11:08;99953.09;;;6.26;62.38
38880;BME280;25887;30.194;-97.880;2023-02-03T05:13:34;99953.06;;;6.25;62.48
38880;BME280;25887;30.194;-97.880;2023-02-03T05:15:59;99941.09;;;6.24;62.53
38880;BME280;25887;30.194;-97.880;2023-02-03T05:18:25;99941.09;;;6.24;62.19
38880;BME280;25887;30.194;-97.880;2023-02-03T05:20:59;99953.78;;;6.22;62.17
38880;BME280;25887;30.194;-97.880;2023-02-03T05:23:25;99946.13;;;6.22;62.06
38880;BME280;25887;30.194;-97.880;2023-02-03T05:25:51;99937.59;;;6.22;62.18
38880;BME280;25887;30.194;-97.880;2023-02-03T05:28:18;99949.41;;;6.20;62.22
38880;BME280;25887;30.194;-97.880;2023-02-03T05:30:45;99951.91;;;6.18;62.06
38880;BME280;25887;30.194;-97.880;2023-02-03T05:33:11;99951.84;;;6.17;62.41
38880;BME280;25887;30.194;-97.880;2023-02-03T05:35:37;99957.78;;;6.16;62.20
38880;BME280;25887;30.194;-97.880;2023-02-03T05:38:02;99953.44;;;6.14;61.97
38880;BME280;25887;30.194;-97.880;2023-02-03T05:40:28;99960.22;;;6.14;62.18
38880;BME280;25887;30.194;-97.880;2023-02-03T05:43:12;99962.72;;;6.12;62.20
38880;BME280;25887;30.194;-97.880;2023-02-03T05:46:01;99966.88;;;6.10;61.90
38880;BME280;25887;30.194;-97.880;2023-02-03T05:48:27;99966.03;;;6.10;62.10
38880;BME280;25887;30.194;-97.880;2023-02-03T05:50:53;99948.91;;;6.07;61.88
38880;BME280;25887;30.194;-97.880;2023-02-03T05:53:18;99947.09;;;6.05;62.03
38880;BME280;25887;30.194;-97.880;2023-02-03T05:55:48;99936.81;;;6.03;62.03
38880;BME280;25887;30.194;-97.880;2023-02-03T05:58:14;99941.00;;;6.01;61.91
38880;BME280;25887;30.194;-97.880;2023-02-03T06:00:39;99945.22;;;6.01;61.87
38880;BME280;25887;30.194;-97.880;2023-02-03T06:03:27;99950.16;;;5.98;61.85
38880;BME280;25887;30.194;-97.880;2023-02-03T06:05:53;99952.72;;;5.98;62.22
38880;BME280;25887;30.194;-97.880;2023-02-03T06:08:19;99960.38;;;5.98;62.19
38880;BME280;25887;30.194;-97.880;2023-02-03T06:10:44;99950.13;;;5.96;62.12
38880;BME280;25887;30.194;-97.880;2023-02-03T06:13:19;99946.75;;;5.97;61.85
38880;BME280;25887;30.194;-97.880;2023-02-03T06:15:45;99950.16;;;5.98;62.15
38880;BME280;25887;30.194;-97.880;2023-02-03T06:18:11;99939.97;;;5.98;61.88
38880;BME280;25887;30.194;-97.880;2023-02-03T06:20:37;99950.16;;;5.98;61.86
38880;BME280;25887;30.194;-97.880;2023-02-03T06:23:03;99953.69;;;6.00;62.27
38880;BME280;25887;30.194;-97.880;2023-02-03T06:25:28;99947.72;;;5.99;61.39
38880;BME280;25887;30.194;-97.880;2023-02-03T06:30:41;99939.25;;;6.00;61.88
38880;BME280;25887;30.194;-97.880;2023-02-03T06:33:14;99952.88;;;6.01;62.05
38880;BME280;25887;30.194;-97.880;2023-02-03T06:35:40;99956.28;;;6.01;62.19
38880;BME280;25887;30.194;-97.880;2023-02-03T06:38:06;99960.53;;;6.01;61.90
38880;BME280;25887;30.194;-97.880;2023-02-03T06:40:32;99965.63;;;6.01;61.75
38880;BME280;25887;30.194;-97.880;2023-02-03T06:42:57;99962.22;;;6.00;61.76
38880;BME280;25887;30.194;-97.880;2023-02-03T06:45:23;99963.88;;;6.00;61.92
38880;BME280;25887;30.194;-97.880;2023-02-03T06:47:50;99965.56;;;5.99;62.01
38880;BME280;25887;30.194;-97.880;2023-02-03T06:50:16;99968.19;;;6.01;61.58
38880;BME280;25887;30.194;-97.880;2023-02-03T06:52:42;99964.81;;;6.02;61.44
38880;BME280;25887;30.194;-97.880;2023-02-03T06:55:08;99973.34;;;6.02;61.41
38880;BME280;25887;30.194;-97.880;2023-02-03T06:57:35;99970.78;;;6.02;61.76
38880;BME280;25887;30.194;-97.880;2023-02-03T07:00:07;99977.63;;;6.03;61.46
38880;BME280;25887;30.194;-97.880;2023-02-03T07:02:33;99970.78;;;6.02;61.52
38880;BME280;25887;30.194;-97.880;2023-02-03T07:04:59;99973.34;;;6.02;61.58
38880;BME280;25887;30.194;-97.880;2023-02-03T07:07:40;99974.22;;;6.03;61.68
38880;BME280;25887;30.194;-97.880;2023-02-03T07:10:35;99974.16;;;6.01;61.13
38880;BME280;25887;30.194;-97.880;2023-02-03T07:13:08;99964.66;;;5.99;61.24
38880;BME280;25887;30.194;-97.880;2023-02-03T07:15:52;99970.59;;;5.98;61.14
38880;BME280;25887;30.194;-97.880;2023-02-03T07:18:18;99968.03;;;5.98;61.46
38880;BME280;25887;30.194;-97.880;2023-02-03T07:20:49;99965.47;;;5.98;61.21
38880;BME280;25887;30.194;-97.880;2023-02-03T07:23:48;99973.94;;;5.97;61.36
38880;BME280;25887;30.194;-97.880;2023-02-03T07:26:15;99967.97;;;5.96;61.35
38880;BME280;25887;30.194;-97.880;2023-02-03T07:28:41;99968.78;;;5.95;61.51
38880;BME280;25887;30.194;-97.880;2023-02-03T07:31:06;99962.75;;;5.93;61.48
38880;BME280;25887;30.194;-97.880;2023-02-03T07:36:37;99966.00;;;5.91;61.17
38880;BME280;25887;30.194;-97.880;2023-02-03T07:39:03;99972.75;;;5.90;61.46
38880;BME280;25887;30.194;-97.880;2023-02-03T07:41:47;99966.72;;;5.88;61.33
38880;BME280;25887;30.194;-97.880;2023-02-03T07:44:13;99974.31;;;5.86;61.28
38880;BME280;25887;30.194;-97.880;2023-02-03T07:46:39;99975.19;;;5.87;61.01
38880;BME280;25887;30.194;-97.880;2023-02-03T07:49:20;99968.34;;;5.86;61.07
38880;BME280;25887;30.194;-97.880;2023-02-03T07:51:46;99974.31;;;5.86;60.88
38880;BME280;25887;30.194;-97.880;2023-02-03T07:54:12;99981.03;;;5.84;60.82
38880;BME280;25887;30.194;-97.880;2023-02-03T07:56:40;99977.63;;;5.84;60.98
38880;BME280;25887;30.194;-97.880;2023-02-03T07:59:10;99975.94;;;5.84;61.12
38880;BME280;25887;30.194;-97.880;2023-02-03T08:01:36;99981.81;;;5.83;60.77
38880;BME280;25887;30.194;-97.880;2023-02-03T08:04:02;99978.41;;;5.83;61.08
38880;BME280;25887;30.194;-97.880;2023-02-03T08:06:30;99971.56;;;5.82;60.84
38880;BME280;25887;30.194;-97.880;2023-02-03T08:08:55;99971.56;;;5.82;61.06
38880;BME280;25887;30.194;-97.880;2023-02-03T08:11:21;99974.91;;;5.81;60.90
38880;BME280;25887;30.194;-97.880;2023-02-03T08:13:48;99972.34;;;5.81;61.04
38880;BME280;25887;30.194;-97.880;2023-02-03T08:16:13;99972.28;;;5.79;61.29
38880;BME280;25887;30.194;-97.880;2023-02-03T08:18:39;99979.88;;;5.78;61.19
38880;BME280;25887;30.194;-97.880;2023-02-03T08:21:31;99971.38;;;5.77;60.84
38880;BME280;25887;30.194;-97.880;2023-02-03T08:23:57;99961.97;;;5.76;60.85
38880;BME280;25887;30.194;-97.880;2023-02-03T08:26:23;99968.81;;;5.77;61.27
38880;BME280;25887;30.194;-97.880;2023-02-03T08:28:48;99976.41;;;5.76;60.89
38880;BME280;25887;30.194;-97.880;2023-02-03T08:31:15;99974.63;;;5.75;60.86
38880;BME280;25887;30.194;-97.880;2023-02-03T08:33:59;99972.03;;;5.73;61.27
38880;BME280;25887;30.194;-97.880;2023-02-03T08:36:29;99970.28;;;5.72;61.04
38880;BME280;25887;30.194;-97.880;2023-02-03T08:38:55;99970.28;;;5.72;60.94
38880;BME280;25887;30.194;-97.880;2023-02-03T08:41:21;99969.41;;;5.72;61.18
38880;BME280;25887;30.194;-97.880;2023-02-03T08:43:52;99976.25;;;5.73;61.38
38880;BME280;25887;30.194;-97.880;2023-02-03T08:46:19;99978.78;;;5.73;61.18
38880;BME280;25887;30.194;-97.880;2023-02-03T08:48:47;99971.16;;;5.73;61.39
38880;BME280;25887;30.194;-97.880;2023-02-03T08:51:14;99978.78;;;5.73;60.73
38880;BME280;25887;30.194;-97.880;2023-02-03T08:53:40;99978.78;;;5.73;61.22
38880;BME280;25887;30.194;-97.880;2023-02-03T08:56:08;99976.13;;;5.70;61.03
38880;BME280;25887;30.194;-97.880;2023-02-03T08:58:35;99973.56;;;5.70;60.91
38880;BME280;25887;30.194;-97.880;2023-02-03T09:01:19;99976.13;;;5.70;61.42
38880;BME280;25887;30.194;-97.880;2023-02-03T09:03:45;99972.59;;;5.68;61.41
38880;BME280;25887;30.194;-97.880;2023-02-03T09:06:11;99973.41;;;5.67;61.16
38880;BME280;25887;30.194;-97.880;2023-02-03T09:08:57;99964.84;;;5.65;60.84
38880;BME280;25887;30.194;-97.880;2023-02-03T09:11:23;99968.13;;;5.62;61.37
38880;BME280;25887;30.194;-97.880;2023-02-03T09:13:50;99966.28;;;5.59;61.40
38880;BME280;25887;30.194;-97.880;2023-02-03T09:16:17;99971.31;;;5.58;61.26
38880;BME280;25887;30.194;-97.880;2023-02-03T09:18:43;99966.22;;;5.58;61.35
38880;BME280;25887;30.194;-97.880;2023-02-03T09:21:10;99971.25;;;5.56;61.33
38880;BME280;25887;30.194;-97.880;2023-02-03T09:23:36;99973.75;;;5.55;61.50
38880;BME280;25887;30.194;-97.880;2023-02-03T09:26:03;99977.97;;;5.54;61.44
38880;BME280;25887;30.194;-97.880;2023-02-03T09:28:47;99974.47;;;5.52;61.29
38880;BME280;25887;30.194;-97.880;2023-02-03T09:31:32;99976.06;;;5.50;61.49
38880;BME280;25887;30.194;-97.880;2023-02-03T09:33:58;99976.88;;;5.49;61.40
38880;BME280;25887;30.194;-97.880;2023-02-03T09:36:24;99985.34;;;5.48;61.17
38880;BME280;25887;30.194;-97.880;2023-02-03T09:39:00;99992.97;;;5.48;61.29
38880;BME280;25887;30.194;-97.880;2023-02-03T09:44:20;99990.44;;;5.48;60.98
38880;BME280;25887;30.194;-97.880;2023-02-03T09:46:47;99988.69;;;5.47;61.11
38880;BME280;25887;30.194;-97.880;2023-02-03T09:49:34;99992.91;;;5.47;61.13
38880;BME280;25887;30.194;-97.880;2023-02-03T09:52:24;99992.84;;;5.45;61.05
38880;BME280;25887;30.194;-97.880;2023-02-03T09:54:55;99997.97;;;5.45;60.95
38880;BME280;25887;30.194;-97.880;2023-02-03T09:57:24;100000.50;;;5.45;61.38
38880;BME280;25887;30.194;-97.880;2023-02-03T09:59:51;100009.81;;;5.45;60.89
38880;BME280;25887;30.194;-97.880;2023-02-03T10:02:20;100005.44;;;5.42;60.91
38880;BME280;25887;30.194;-97.880;2023-02-03T10:04:56;100007.06;;;5.40;60.86
38880;BME280;25887;30.194;-97.880;2023-02-03T10:12:57;100023.78;;;5.35;61.18
38880;BME280;25887;30.194;-97.880;2023-02-03T10:17:56;100023.78;;;5.35;61.12
38880;BME280;25887;30.194;-97.880;2023-02-03T10:23:00;100033.97;;;5.35;60.67
38880;BME280;25887;30.194;-97.880;2023-02-03T10:27:58;100033.03;;;5.33;61.39
38880;BME280;25887;30.194;-97.880;2023-02-03T10:30:36;100032.09;;;5.31;61.11
38880;BME280;25887;30.194;-97.880;2023-02-03T10:41:15;100042.00;;;5.25;61.45
38880;BME280;25887;30.194;-97.880;2023-02-03T10:43:42;100047.03;;;5.23;61.22
38880;BME280;25887;30.194;-97.880;2023-02-03T10:46:22;100056.34;;;5.23;60.80
38880;BME280;25887;30.194;-97.880;2023-02-03T10:48:51;100069.09;;;5.23;60.97
38880;BME280;25887;30.194;-97.880;2023-02-03T10:51:27;100075.06;;;5.23;60.75
38880;BME280;25887;30.194;-97.880;2023-02-03T10:53:56;100065.75;;;5.24;60.96
38880;BME280;25887;30.194;-97.880;2023-02-03T10:56:34;100059.84;;;5.25;61.21
38880;BME280;25887;30.194;-97.880;2023-02-03T10:59:35;100031.69;;;5.22;60.56
38880;BME280;25887;30.194;-97.880;2023-02-03T11:02:06;100024.09;;;5.23;61.13
38880;BME280;25887;30.194;-97.880;2023-02-03T11:04:33;100027.34;;;5.21;61.34
38880;BME280;25887;30.194;-97.880;2023-02-03T11:07:03;100043.44;;;5.20;61.17
38880;BME280;25887;30.194;-97.880;2023-02-03T11:09:32;100052.84;;;5.21;61.20
38880;BME280;25887;30.194;-97.880;2023-02-03T11:12:04;100070.66;;;5.21;61.40
38880;BME280;25887;30.194;-97.880;2023-02-03T11:14:35;100076.66;;;5.21;61.22
38880;BME280;25887;30.194;-97.880;2023-02-03T11:17:22;100063.13;;;5.22;61.24
38880;BME280;25887;30.194;-97.880;2023-02-03T11:20:14;100070.84;;;5.24;61.16
38880;BME280;25887;30.194;-97.880;2023-02-03T11:23:01;100065.75;;;5.24;61.22
38880;BME280;25887;30.194;-97.880;2023-02-03T11:25:31;100079.34;;;5.24;61.02
38880;BME280;25887;30.194;-97.880;2023-02-03T11:28:03;100080.22;;;5.25;60.69
38880;BME280;25887;30.194;-97.880;2023-02-03T11:30:32;100093.84;;;5.25;61.21
38880;BME280;25887;30.194;-97.880;2023-02-03T11:33:01;100090.47;;;5.26;60.95
38880;BME280;25887;30.194;-97.880;2023-02-03T11:35:28;100103.28;;;5.28;61.29
38880;BME280;25887;30.194;-97.880;2023-02-03T11:37:59;100099.16;;;5.30;61.26
38880;BME280;25887;30.194;-97.880;2023-02-03T11:40:27;100099.94;;;5.29;60.59
38880;BME280;25887;30.194;-97.880;2023-02-03T12:00:26;100137.22;;;5.27;60.74
38880;BME280;25887;30.194;-97.880;2023-02-03T12:06:05;100144.06;;;5.28;60.44
38880;BME280;25887;30.194;-97.880;2023-02-03T12:08:58;100138.81;;;5.25;60.84
38880;BME280;25887;30.194;-97.880;2023-02-03T12:12:06;100148.00;;;5.21;60.70
38880;BME280;25887;30.194;-97.880;2023-02-03T12:17:15;100156.28;;;5.17;60.81
38880;BME280;25887;30.194;-97.880;2023-02-03T12:19:49;100151.03;;;5.14;60.32
38880;BME280;25887;30.194;-97.880;2023-02-03T12:22:39;100156.84;;;5.12;60.61
38880;BME280;25887;30.194;-97.880;2023-02-03T12:30:30;100159.06;;;5.06;60.19
38880;BME280;25887;30.194;-97.880;2023-02-03T12:33:03;100151.28;;;5.02;60.31
38880;BME280;25887;30.194;-97.880;2023-02-03T12:35:38;100151.16;;;4.99;60.38
38880;BME280;25887;30.194;-97.880;2023-02-03T12:40:41;100155.13;;;4.94;60.69
38880;BME280;25887;30.194;-97.880;2023-02-03T12:45:39;100166.03;;;4.92;60.26
38880;BME280;25887;30.194;-97.880;2023-02-03T12:48:08;100173.59;;;4.90;60.16
38880;BME280;25887;30.194;-97.880;2023-02-03T12:53:10;100177.09;;;4.92;60.19
38880;BME280;25887;30.194;-97.880;2023-02-03T12:55:39;100184.75;;;4.92;60.48
38880;BME280;25887;30.194;-97.880;2023-02-03T12:58:40;100177.91;;;4.91;60.55
38880;BME280;25887;30.194;-97.880;2023-02-03T13:03:57;100186.16;;;4.87;60.60
38880;BME280;25887;30.194;-97.880;2023-02-03T13:09:18;100178.19;;;4.81;60.29
38880;BME280;25887;30.194;-97.880;2023-02-03T13:11:56;100184.03;;;4.79;60.61
38880;BME280;25887;30.194;-97.880;2023-02-03T13:14:35;100177.91;;;4.75;60.71
38880;BME280;25887;30.194;-97.880;2023-02-03T13:17:07;100188.00;;;4.73;60.57
38880;BME280;25887;30.194;-97.880;2023-02-03T13:19:42;100191.34;;;4.72;60.10
38880;BME280;25887;30.194;-97.880;2023-02-03T13:22:13;100193.09;;;4.73;60.73
38880;BME280;25887;30.194;-97.880;2023-02-03T13:24:42;100195.63;;;4.73;60.03
38880;BME280;25887;30.194;-97.880;2023-02-03T13:35:07;100207.16;;;4.67;60.44
38880;BME280;25887;30.194;-97.880;2023-02-03T13:40:27;100216.38;;;4.65;60.27
38880;BME280;25887;30.194;-97.880;2023-02-03T13:42:59;100215.50;;;4.64;60.70
38880;BME280;25887;30.194;-97.880;2023-02-03T13:45:30;100227.38;;;4.64;60.59
38880;BME280;25887;30.194;-97.880;2023-02-03T13:47:59;100235.00;;;4.64;60.16
38880;BME280;25887;30.194;-97.880;2023-02-03T13:50:30;100233.25;;;4.63;60.33
38880;BME280;25887;30.194;-97.880;2023-02-03T13:52:57;100240.91;;;4.63;60.09
38880;BME280;25887;30.194;-97.880;2023-02-03T13:58:30;100241.63;;;4.60;60.66
38880;BME280;25887;30.194;-97.880;2023-02-03T14:01:01;100238.19;;;4.60;60.80
38880;BME280;25887;30.194;-97.880;2023-02-03T14:05:54;100239.22;;;4.63;60.81
38880;BME280;25887;30.194;-97.880;2023-02-03T14:13:37;100248.06;;;4.70;61.14
38880;BME280;25887;30.194;-97.880;2023-02-03T14:16:13;100252.44;;;4.72;61.05
38880;BME280;25887;30.194;-97.880;2023-02-03T14:18:59;100263.81;;;4.79;61.03
38880;BME280;25887;30.194;-97.880;2023-02-03T14:21:26;100271.72;;;4.84;61.35
38880;BME280;25887;30.194;-97.880;2023-02-03T14:24:01;100270.19;;;4.87;60.85
38880;BME280;25887;30.194;-97.880;2023-02-03T14:26:32;100271.31;;;4.92;61.21
38880;BME280;25887;30.194;-97.880;2023-02-03T14:28:59;100263.91;;;4.97;60.85
38880;BME280;25887;30.194;-97.880;2023-02-03T14:31:51;100265.03;;;5.02;61.44
38880;BME280;25887;30.194;-97.880;2023-02-03T14:34:17;100270.38;;;5.23;60.84
38880;BME280;25887;30.194;-97.880;2023-02-03T14:36:47;100270.44;;;5.75;60.41
38880;BME280;25887;30.194;-97.880;2023-02-03T14:44:27;100275.41;;;5.72;61.22
38880;BME280;25887;30.194;-97.880;2023-02-03T14:49:26;100280.13;;;5.82;61.16
38880;BME280;25887;30.194;-97.880;2023-02-03T14:57:03;100293.25;;;6.06;61.55
38880;BME280;25887;30.194;-97.880;2023-02-03T15:00:02;100297.16;;;6.16;62.11
38880;BME280;25887;30.194;-97.880;2023-02-03T15:03:22;100309.47;;;6.42;61.86
38880;BME280;25887;30.194;-97.880;2023-02-03T15:05:44;100315.16;;;6.54;61.75
38880;BME280;25887;30.194;-97.880;2023-02-03T15:08:28;100316.47;;;6.64;61.81
38880;BME280;25887;30.194;-97.880;2023-02-03T15:10:54;100325.81;;;6.63;61.58
38880;BME280;25887;30.194;-97.880;2023-02-03T15:13:27;100324.94;;;6.63;61.42
38880;BME280;25887;30.194;-97.880;2023-02-03T15:15:57;100333.41;;;6.62;61.57
38880;BME280;25887;30.194;-97.880;2023-02-03T15:18:30;100337.59;;;6.61;61.41
38880;BME280;25887;30.194;-97.880;2023-02-03T15:20:56;100330.75;;;6.60;61.20
38880;BME280;25887;30.194;-97.880;2023-02-03T15:23:24;100341.84;;;6.61;61.07
38880;BME280;25887;30.194;-97.880;2023-02-03T15:25:54;100351.97;;;6.59;61.19
38880;BME280;25887;30.194;-97.880;2023-02-03T15:28:21;100353.81;;;6.62;61.27
38880;BME280;25887;30.194;-97.880;2023-02-03T15:31:14;100351.28;;;6.62;61.21
38880;BME280;25887;30.194;-97.880;2023-02-03T15:33:35;100368.41;;;6.64;60.93
38880;BME280;25887;30.194;-97.880;2023-02-03T15:36:04;100362.56;;;6.67;60.96
38880;BME280;25887;30.194;-97.880;2023-02-03T15:38:35;100369.50;;;6.69;60.85